createdAt,value
2018-08-18T00:04:48.542Z,88.20
2018-08-18T00:09:52.065Z,87.80
2018-08-18T00:14:55.512Z,88.10
2018-08-18T00:19:58.949Z,87.70
2018-08-18T00:25:02.438Z,89.20
2018-08-18T00:30:12.468Z,88.90
2018-08-18T00:35:15.919Z,88.50
2018-08-18T00:40:19.360Z,89.30
2018-08-18T00:45:22.814Z,88.60
2018-08-18T00:50:37.705Z,90.00
2018-08-18T00:55:41.193Z,89.70
2018-08-18T01:00:48.881Z,90.10
2018-08-18T01:05:52.442Z,89.30
2018-08-18T01:10:55.988Z,89.00
2018-08-18T01:15:59.365Z,90.00
2018-08-18T01:21:02.848Z,88.80
2018-08-18T01:26:06.698Z,89.00
2018-08-18T01:31:19.373Z,88.80
2018-08-18T01:36:22.823Z,88.70
2018-08-18T01:41:26.361Z,89.20
2018-08-18T01:46:29.801Z,88.50
2018-08-18T01:51:33.264Z,88.50
2018-08-18T01:56:36.722Z,88.60
2018-08-18T02:01:40.197Z,88.90
2018-08-18T02:06:43.789Z,88.80
2018-08-18T02:11:50.980Z,88.50
2018-08-18T02:17:04.365Z,89.20
2018-08-18T02:22:07.841Z,89.90
2018-08-18T02:27:11.494Z,89.70
2018-08-18T02:32:26.302Z,89.20
2018-08-18T02:37:30.529Z,89.80
2018-08-18T02:42:33.999Z,89.80
2018-08-18T02:47:37.469Z,89.80
2018-08-18T02:52:40.913Z,90.00
2018-08-18T02:57:44.748Z,90.20
2018-08-18T03:02:48.336Z,90.10
2018-08-18T03:07:52.944Z,90.10
2018-08-18T03:12:57.504Z,90.20
2018-08-18T03:18:01.018Z,90.20
2018-08-18T03:23:04.549Z,90.20
2018-08-18T03:28:08.049Z,90.30
2018-08-18T03:33:11.525Z,90.20
2018-08-18T03:38:17.839Z,90.50
2018-08-18T03:43:21.308Z,90.50
2018-08-18T03:48:24.724Z,90.40
2018-08-18T03:53:28.164Z,90.30
2018-08-18T03:58:41.648Z,90.20
2018-08-18T04:03:45.428Z,90.20
2018-08-18T04:08:48.872Z,90.30
2018-08-18T04:13:52.348Z,90.20
2018-08-18T04:18:59.655Z,90.20
2018-08-18T04:24:03.111Z,90.30
2018-08-18T04:29:06.621Z,90.20
2018-08-18T04:34:10.024Z,90.00
2018-08-18T04:39:14.057Z,90.20
2018-08-18T04:44:17.497Z,90.10
2018-08-18T04:49:20.914Z,90.00
2018-08-18T04:54:24.338Z,89.40
2018-08-18T04:59:27.935Z,88.40
2018-08-18T05:04:31.335Z,88.00
2018-08-18T05:09:34.794Z,87.20
2018-08-18T05:14:38.221Z,86.80
2018-08-18T05:19:41.713Z,87.60
2018-08-18T05:24:45.182Z,87.10
2018-08-18T05:29:48.959Z,86.70
2018-08-18T05:34:52.393Z,86.80
2018-08-18T05:39:55.902Z,87.20
2018-08-18T05:45:00.743Z,86.20
2018-08-18T05:50:04.290Z,84.50
2018-08-18T05:55:07.764Z,83.20
2018-08-18T06:00:16.617Z,83.60
2018-08-18T06:05:20.540Z,82.50
2018-08-18T06:10:24.014Z,81.40
2018-08-18T06:15:27.502Z,81.10
2018-08-18T06:20:30.949Z,80.80
2018-08-18T06:25:34.518Z,80.60
2018-08-18T06:30:37.989Z,80.10
2018-08-18T06:35:41.481Z,79.40
2018-08-18T06:40:49.172Z,78.50
2018-08-18T06:45:52.608Z,76.60
2018-08-18T06:50:56.090Z,76.10
2018-08-18T06:56:00.694Z,75.20
2018-08-18T07:01:04.358Z,70.30
2018-08-18T07:06:09.944Z,68.90
2018-08-18T07:11:13.439Z,69.00
2018-08-18T07:16:16.920Z,69.90
2018-08-18T07:21:20.425Z,71.00
2018-08-18T07:26:24.041Z,72.50
2018-08-18T07:31:27.514Z,73.80
2018-08-18T07:36:30.995Z,73.80
2018-08-18T07:41:34.660Z,73.70
2018-08-18T07:51:54.689Z,72.10
2018-08-18T07:56:58.496Z,71.10
2018-08-18T08:02:01.999Z,70.60
2018-08-18T08:07:05.562Z,70.40
2018-08-18T08:12:09.112Z,70.60
2018-08-18T08:17:12.962Z,71.20
2018-08-18T08:22:16.472Z,70.60
2018-08-18T08:27:19.999Z,69.90
2018-08-18T08:32:23.526Z,70.20
2018-08-18T08:37:27.016Z,69.60
2018-08-18T08:42:30.545Z,68.90
2018-08-18T08:47:34.096Z,68.90
2018-08-18T08:52:42.834Z,68.30
2018-08-18T08:57:46.403Z,67.30
2018-08-18T09:02:49.994Z,66.40
2018-08-18T09:07:53.517Z,67.10
2018-08-18T09:12:57.064Z,65.90
2018-08-18T09:18:00.625Z,65.30
2018-08-18T09:23:04.158Z,64.20
2018-08-18T09:28:07.673Z,65.00
2018-08-18T09:33:11.165Z,62.50
2018-08-18T09:38:14.705Z,63.40
2018-08-18T09:43:25.388Z,63.70
2018-08-18T09:48:28.965Z,62.60
2018-08-18T09:53:32.435Z,62.60
2018-08-18T09:58:36.006Z,62.30
2018-08-18T10:03:39.435Z,62.10
2018-08-18T10:08:42.986Z,61.60
2018-08-18T10:13:46.496Z,59.80
2018-08-18T10:18:50.731Z,58.80
2018-08-18T10:23:54.422Z,58.70
2018-08-18T10:29:12.377Z,58.50
2018-08-18T10:34:16.702Z,58.10
2018-08-18T10:39:20.229Z,57.30
2018-08-18T10:44:24.529Z,57.70
2018-08-18T10:49:39.325Z,57.60
2018-08-18T10:54:43.241Z,57.30
2018-08-18T10:59:52.629Z,56.90
2018-08-18T11:04:56.181Z,56.70
2018-08-18T11:09:59.800Z,56.60
2018-08-18T11:15:03.854Z,55.30
2018-08-18T11:20:12.835Z,54.90
2018-08-18T11:25:16.426Z,54.40
2018-08-18T11:30:21.232Z,55.20
2018-08-18T11:35:24.889Z,55.50
2018-08-18T11:40:28.441Z,56.10
2018-08-18T11:45:33.409Z,55.80
2018-08-18T11:50:37.031Z,56.40
2018-08-18T11:55:40.626Z,55.70
2018-08-18T12:00:46.497Z,54.90
2018-08-18T12:05:57.792Z,55.40
2018-08-18T12:11:03.118Z,55.30
2018-08-18T12:16:18.129Z,54.80
2018-08-18T12:21:21.699Z,54.70
2018-08-18T12:26:25.226Z,54.20
2018-08-18T12:31:29.218Z,53.30
2018-08-18T12:36:32.867Z,53.20
2018-08-18T12:41:36.329Z,52.70
2018-08-18T12:46:45.311Z,52.10
2018-08-18T12:51:48.833Z,51.30
2018-08-18T12:56:52.332Z,50.30
2018-08-18T13:01:55.838Z,50.60
2018-08-18T13:06:59.339Z,50.00
2018-08-18T13:12:02.846Z,50.30
2018-08-18T13:17:06.723Z,50.30
2018-08-18T13:22:10.225Z,49.30
2018-08-18T13:27:13.787Z,49.60
2018-08-18T13:32:17.381Z,48.70
2018-08-18T13:37:20.876Z,48.80
2018-08-18T13:42:25.436Z,49.10
2018-08-18T13:47:29.106Z,48.90
2018-08-18T13:52:37.784Z,48.60
2018-08-18T13:57:41.508Z,49.40
2018-08-18T14:02:45.719Z,48.60
2018-08-18T14:07:54.816Z,48.80
2018-08-18T14:13:02.966Z,49.60
2018-08-18T14:18:11.011Z,48.80
2018-08-18T14:23:14.494Z,48.50
2018-08-18T14:28:17.965Z,48.50
2018-08-18T14:33:21.413Z,48.80
2018-08-18T14:38:24.916Z,47.50
2018-08-18T14:43:33.884Z,47.80
2018-08-18T14:48:37.409Z,47.70
2018-08-18T14:53:41.901Z,46.70
2018-08-18T14:58:45.417Z,46.50
2018-08-18T15:03:49.022Z,47.00
2018-08-18T15:08:52.540Z,47.20
2018-08-18T15:13:56.014Z,46.90
2018-08-18T15:18:59.523Z,46.40
2018-08-18T15:24:03.111Z,46.30
2018-08-18T15:29:10.808Z,46.70
2018-08-18T15:34:14.389Z,46.90
2018-08-18T15:39:17.879Z,46.40
2018-08-18T15:44:21.387Z,46.20
2018-08-18T15:49:24.959Z,46.10
2018-08-18T15:54:28.506Z,45.90
2018-08-18T15:59:31.973Z,45.90
2018-08-18T16:04:35.569Z,45.40
2018-08-18T16:09:39.057Z,45.10
2018-08-18T16:14:42.862Z,45.80
2018-08-18T16:19:46.374Z,45.80
2018-08-18T16:24:49.859Z,46.00
2018-08-18T16:29:53.323Z,45.90
2018-08-18T16:35:13.357Z,46.20
2018-08-18T16:40:16.858Z,46.90
2018-08-18T16:45:20.321Z,46.90
2018-08-18T16:50:23.815Z,46.30
2018-08-18T16:55:28.928Z,46.70
2018-08-18T17:00:32.632Z,47.60
2018-08-18T17:05:36.158Z,47.70
2018-08-18T17:10:39.593Z,47.60
2018-08-18T17:15:43.112Z,48.00
2018-08-18T17:20:54.990Z,48.40
2018-08-18T17:25:58.500Z,48.50
2018-08-18T17:31:02.981Z,48.90
2018-08-18T17:36:06.509Z,49.20
2018-08-18T17:41:10.043Z,49.50
2018-08-18T17:46:13.589Z,49.60
2018-08-18T17:51:17.101Z,50.00
2018-08-18T17:56:20.613Z,50.20
2018-08-18T18:01:24.161Z,50.40
2018-08-18T18:06:27.795Z,50.90
2018-08-18T18:11:31.200Z,52.00
2018-08-18T18:16:34.704Z,52.20
2018-08-18T18:21:38.338Z,52.50
2018-08-18T18:26:45.593Z,52.60
2018-08-18T18:31:49.110Z,53.60
2018-08-18T18:36:52.648Z,53.40
2018-08-18T18:41:56.120Z,54.80
2018-08-18T18:46:59.628Z,54.90
2018-08-18T18:52:03.266Z,54.70
2018-08-18T18:57:06.859Z,56.00
2018-08-18T19:02:10.485Z,56.30
2018-08-18T19:07:14.028Z,56.50
2018-08-18T19:12:17.743Z,57.10
2018-08-18T19:17:21.284Z,57.70
2018-08-18T19:22:24.813Z,58.60
2018-08-18T19:27:28.342Z,59.80
2018-08-18T19:32:31.928Z,61.10
2018-08-18T19:37:39.620Z,61.90
2018-08-18T19:42:43.180Z,62.90
2018-08-18T19:47:46.756Z,63.40
2018-08-18T19:52:56.366Z,64.00
2018-08-18T19:57:59.935Z,64.20
2018-08-18T20:03:06.060Z,65.20
2018-08-18T20:08:09.782Z,65.70
2018-08-18T20:13:14.348Z,66.00
2018-08-18T20:18:18.092Z,66.20
2018-08-18T20:23:21.957Z,67.40
2018-08-18T20:28:25.458Z,67.50
2018-08-18T20:33:28.946Z,68.10
2018-08-18T20:38:47.052Z,68.30
2018-08-18T20:43:50.677Z,69.00
2018-08-18T20:48:54.244Z,68.40
2018-08-18T20:53:57.749Z,68.50
2018-08-18T20:59:02.182Z,68.90
2018-08-18T21:04:05.806Z,68.20
2018-08-18T21:09:24.365Z,69.40
2018-08-18T21:14:29.064Z,68.50
2018-08-18T21:19:33.192Z,69.40
2018-08-18T21:24:36.692Z,69.10
2018-08-18T21:29:40.157Z,68.90
2018-08-18T21:34:47.973Z,68.80
2018-08-18T21:39:52.072Z,69.30
2018-08-18T21:44:55.596Z,69.80
2018-08-18T21:49:59.104Z,70.70
2018-08-18T21:55:02.641Z,71.70
2018-08-18T22:00:06.555Z,72.00
2018-08-18T22:05:11.868Z,72.50
2018-08-18T22:10:15.382Z,73.10
2018-08-18T22:15:19.867Z,73.70
2018-08-18T22:20:24.137Z,73.30
2018-08-18T22:25:27.681Z,72.60
2018-08-18T22:30:31.207Z,72.60
2018-08-18T22:35:35.310Z,72.60
2018-08-18T22:40:38.822Z,72.70
2018-08-18T22:45:42.319Z,73.60
2018-08-18T22:50:45.785Z,73.60
2018-08-18T22:55:49.290Z,73.40
2018-08-18T23:00:56.434Z,73.50
2018-08-18T23:06:00.004Z,73.10
2018-08-18T23:11:03.535Z,73.30
2018-08-18T23:16:07.107Z,73.80
2018-08-18T23:21:14.861Z,74.00
2018-08-18T23:26:18.366Z,75.60
2018-08-18T23:31:21.842Z,76.10
2018-08-18T23:36:25.404Z,76.40
2018-08-18T23:41:28.884Z,76.70
2018-08-18T23:46:32.330Z,76.60
2018-08-18T23:51:41.054Z,76.90
2018-08-18T23:56:44.532Z,77.40
